Time;durP1;ratioP1;P1;durP2;ratioP2;P2;SDS_P1;SDS_P2;PMS_P1;PMS_P2;Temp;Humidity;BMP_temperature;BMP_pressure;BME280_temperature;BME280_humidity;BME280_pressure;Samples;Min_cycle;Max_cycle;Signal;HPM_P1;HPM_P2
2021/12/21 00:00:37;;;;;;;1999.90;999.90;;;;;;;0.27;92.72;162471.66;5050051;28;20445;-67
2021/12/21 00:03:03;;;;;;;1999.90;999.90;;;;;;;0.48;92.33;162526.38;5042775;28;20049;-67
2021/12/21 00:05:30;;;;;;;1999.90;999.90;;;;;;;0.55;92.08;162545.47;5039235;28;20136;-66
2021/12/21 00:07:59;;;;;;;1999.90;999.90;;;;;;;0.61;91.48;162561.94;5049090;28;20093;-67
2021/12/21 00:10:29;;;;;;;1999.90;999.90;;;;;;;0.81;91.52;162615.25;5051393;28;20118;-67
2021/12/21 00:15:36;;;;;;;1999.90;999.90;;;;;;;0.97;90.45;162657.69;5046645;28;20085;-67
2021/12/21 00:23:32;;;;;;;1999.90;999.90;;;;;;;0.75;90.02;162598.84;5046513;28;20141;-67
2021/12/21 00:26:08;;;;;;;1999.90;999.90;;;;;;;0.34;91.43;162489.41;5045382;28;20080;-67
2021/12/21 00:28:49;;;;;;;1999.90;999.90;;;;;;;0.50;91.10;162531.81;5040291;28;20083;-67
2021/12/21 00:31:17;;;;;;;1999.90;999.90;;;;;;;0.53;90.98;162540.03;5041010;28;20478;-67
2021/12/21 00:33:46;;;;;;;1999.90;999.90;;;;;;;0.45;91.05;162519.53;5047885;28;20076;-67
2021/12/21 00:36:15;;;;;;;1999.90;999.90;;;;;;;0.51;90.56;162535.94;5052497;28;20064;-68
2021/12/21 00:38:43;;;;;;;1999.90;999.90;;;;;;;0.53;90.83;162541.38;5039834;28;20099;-67
2021/12/21 00:41:09;;;;;;;1999.90;999.90;;;;;;;0.81;90.03;162615.25;5046348;28;20456;-67
2021/12/21 00:43:36;;;;;;;1999.90;999.90;;;;;;;0.74;89.84;162596.09;5054881;28;20048;-67
2021/12/21 00:46:03;;;;;;;1999.90;999.90;;;;;;;0.34;91.72;162490.81;5045277;28;20073;-67
2021/12/21 00:48:32;;;;;;;1999.90;999.90;;;;;;;0.35;91.86;162493.53;5048833;28;20442;-67
2021/12/21 00:51:01;;;;;;;1999.90;999.90;;;;;;;-0.21;93.90;162344.53;5040056;28;20080;-67
2021/12/21 00:53:28;;;;;;;1999.90;999.90;;;;;;;0.09;93.58;162423.81;5047590;28;20442;-67
2021/12/21 00:55:55;;;;;;;1999.90;999.90;;;;;;;0.11;92.64;162429.25;5045631;28;20499;-67
2021/12/21 00:58:22;;;;;;;1999.90;999.90;;;;;;;0.20;92.55;162452.53;5050189;28;20504;-67
2021/12/21 01:00:49;;;;;;;1999.90;999.90;;;;;;;-0.09;93.78;162375.97;5046924;28;20088;-67
2021/12/21 01:03:17;;;;;;;1999.90;999.90;;;;;;;-0.08;92.89;162377.31;5046528;28;20434;-67
2021/12/21 01:08:19;;;;;;;1999.90;999.90;;;;;;;0.34;92.63;162490.81;5047824;28;20087;-67
2021/12/21 01:16:26;;;;;;;1999.90;999.90;;;;;;;0.13;93.01;162433.38;5059832;28;20461;-67
2021/12/21 01:21:31;;;;;;;1999.90;999.90;;;;;;;0.04;93.36;162408.78;5039884;28;20412;-67
2021/12/21 01:24:31;;;;;;;1999.90;999.90;;;;;;;0.03;93.44;162407.41;5050605;28;20134;-67
2021/12/21 01:35:02;;;;;;;1999.90;999.90;;;;;;;-0.23;94.16;162337.69;5046618;28;20076;-67
2021/12/21 01:37:44;;;;;;;1999.90;999.90;;;;;;;-0.03;94.75;162392.38;5054165;28;20269;-67
2021/12/21 01:51:13;;;;;;;1999.90;999.90;;;;;;;-0.12;96.04;162367.78;5045842;28;20578;-67
2021/12/21 01:53:41;;;;;;;1999.90;999.90;;;;;;;-0.29;97.55;162321.28;5048328;28;20076;-67
2021/12/21 01:56:08;;;;;;;1999.90;999.90;;;;;;;-0.04;97.22;162389.63;5053764;28;20088;-67
2021/12/21 01:58:37;;;;;;;1999.90;999.90;;;;;;;-0.47;99.32;162274.81;5045808;28;20450;-67
2021/12/21 02:01:09;;;;;;;1999.90;999.90;;;;;;;-0.10;98.43;162373.22;5047073;28;20141;-68
2021/12/21 02:03:36;;;;;;;1999.90;999.90;;;;;;;-0.12;98.39;162367.78;5041420;28;20416;-68
2021/12/21 02:06:03;;;;;;;1999.90;999.90;;;;;;;0.01;98.13;162400.56;5052801;28;20041;-68
2021/12/21 02:08:30;;;;;;;1999.90;999.90;;;;;;;-0.15;98.99;162359.53;5050176;28;20179;-68
2021/12/21 02:11:00;;;;;;;1999.90;999.90;;;;;;;0.21;98.08;162455.25;5047919;28;20313;-68
2021/12/21 02:13:32;;;;;;;1999.90;999.90;;;;;;;0.52;97.13;162537.28;5049449;28;20113;-66
2021/12/21 02:16:00;;;;;;;1999.90;999.90;;;;;;;0.02;98.32;162404.66;5048281;28;20053;-66
2021/12/21 02:21:02;;;;;;;1999.90;999.90;;;;;;;-0.07;100.00;162380.06;5045225;28;20066;-66
2021/12/21 02:23:41;;;;;;;1999.90;999.90;;;;;;;-0.19;100.00;162348.63;5038869;28;20077;-66
2021/12/21 02:27:05;;;;;;;1999.90;999.90;;;;;;;0.15;100.00;162440.22;5036548;28;20053;-66
2021/12/21 02:29:13;;;;;;;1999.90;999.90;;;;;;;0.12;100.00;162430.63;5055445;28;20274;-67
2021/12/21 02:31:46;;;;;;;1999.90;999.90;;;;;;;0.30;100.00;162479.88;5041759;28;20111;-67
2021/12/21 02:34:13;;;;;;;1999.90;999.90;;;;;;;0.44;99.59;162515.41;5042937;28;20449;-67
2021/12/21 02:36:43;;;;;;;1999.90;999.90;;;;;;;0.41;99.66;162508.56;5051970;28;20069;-67
2021/12/21 02:39:11;;;;;;;1999.90;999.90;;;;;;;0.43;99.01;162512.66;5040564;28;20053;-67
2021/12/21 02:41:39;;;;;;;1999.90;999.90;;;;;;;0.25;100.00;162464.81;5044821;28;20053;-67
2021/12/21 02:44:05;;;;;;;1999.90;999.90;;;;;;;-0.26;100.00;162329.47;5044286;28;20111;-67
2021/12/21 02:46:32;;;;;;;1999.90;999.90;;;;;;;0.14;100.00;162436.13;5055520;28;20474;-67
2021/12/21 02:48:59;;;;;;;1999.90;999.90;;;;;;;0.44;100.00;162515.41;5045652;28;20525;-67
2021/12/21 02:51:26;;;;;;;1999.90;999.90;;;;;;;0.40;100.00;162505.81;5053266;28;20362;-66
2021/12/21 02:53:52;;;;;;;1999.90;999.90;;;;;;;0.25;100.00;162466.16;5042348;28;20129;-66
2021/12/21 02:56:19;;;;;;;1999.90;999.90;;;;;;;0.07;100.00;162418.31;5037623;28;20096;-66
2021/12/21 02:58:46;;;;;;;1999.90;999.90;;;;;;;0.25;100.00;162466.16;5035915;28;20072;-66
2021/12/21 03:01:13;;;;;;;1999.90;999.90;;;;;;;0.42;100.00;162511.31;5037936;28;20474;-67
2021/12/21 03:03:40;;;;;;;1999.90;999.90;;;;;;;0.06;100.00;162414.22;5042487;28;20492;-66
2021/12/21 03:06:13;;;;;;;1999.90;999.90;;;;;;;0.31;100.00;162482.63;5049366;28;20128;-66
2021/12/21 03:08:48;;;;;;;1999.90;999.90;;;;;;;0.04;100.00;162408.78;5043046;28;20061;-66
2021/12/21 03:11:35;;;;;;;1999.90;999.90;;;;;;;-0.28;100.00;162325.38;5044862;28;20060;-67
2021/12/21 03:14:05;;;;;;;1999.90;999.90;;;;;;;-0.02;100.00;162395.06;5035448;28;20076;-67
2021/12/21 03:16:34;;;;;;;1999.90;999.90;;;;;;;0.18;100.00;162447.06;5057459;28;20088;-67
2021/12/21 03:19:00;;;;;;;1999.90;999.90;;;;;;;-0.01;100.00;162397.81;5044073;28;20048;-67
2021/12/21 03:21:28;;;;;;;1999.90;999.90;;;;;;;-0.12;100.00;162367.78;5043529;28;20048;-66
2021/12/21 03:23:55;;;;;;;1999.90;999.90;;;;;;;-0.52;100.00;162259.75;5055807;28;20103;-66
2021/12/21 03:26:22;;;;;;;1999.90;999.90;;;;;;;-0.62;100.00;162235.19;5074109;28;20157;-66
2021/12/21 03:28:48;;;;;;;1999.90;999.90;;;;;;;-0.59;100.00;162243.38;5041797;28;20076;-66
2021/12/21 03:31:15;;;;;;;1999.90;999.90;;;;;;;-0.79;100.00;162190.09;5042045;28;20080;-66
2021/12/21 03:33:42;;;;;;;1999.90;999.90;;;;;;;-0.83;100.00;162177.75;5041719;28;20091;-66
2021/12/21 03:36:08;;;;;;;1999.90;999.90;;;;;;;-0.67;100.00;162221.53;5049958;28;20087;-66
2021/12/21 03:38:37;;;;;;;1999.90;999.90;;;;;;;-0.62;100.00;162233.81;5046288;28;20072;-67
2021/12/21 03:41:10;;;;;;;1999.90;999.90;;;;;;;-0.15;100.00;162359.53;5046266;28;20491;-67
2021/12/21 03:43:36;;;;;;;1999.90;999.90;;;;;;;-0.46;100.00;162276.16;5045711;28;20430;-66
2021/12/21 03:46:11;;;;;;;1999.90;999.90;;;;;;;-0.25;100.00;162332.22;5048706;28;20045;-66
2021/12/21 03:48:44;;;;;;;1999.90;999.90;;;;;;;-0.42;100.00;162288.44;5038943;28;20049;-67
2021/12/21 03:51:12;;;;;;;1999.90;999.90;;;;;;;-0.17;100.00;162352.72;5048560;28;20173;-67
2021/12/21 03:53:40;;;;;;;1999.90;999.90;;;;;;;-0.34;100.00;162307.59;5041880;28;20109;-66
2021/12/21 03:56:38;;;;;;;1999.90;999.90;;;;;;;-0.70;100.00;162213.28;5040846;28;20080;-67
2021/12/21 03:58:53;;;;;;;1999.90;999.90;;;;;;;-0.29;100.00;162321.28;5041832;28;20053;-66
2021/12/21 04:01:20;;;;;;;1999.90;999.90;;;;;;;-0.92;100.00;162154.59;5042367;28;20630;-66
2021/12/21 04:03:47;;;;;;;1999.90;999.90;;;;;;;-0.51;100.00;162263.84;5048378;28;20069;-67
2021/12/21 04:06:14;;;;;;;1999.90;999.90;;;;;;;-0.28;100.00;162325.38;5047482;28;20055;-67
2021/12/21 04:08:41;;;;;;;1999.90;999.90;;;;;;;-0.46;100.00;162277.56;5049070;28;20390;-67
2021/12/21 04:11:07;;;;;;;1999.90;999.90;;;;;;;-0.17;100.00;162354.06;5038087;28;20106;-67
2021/12/21 04:13:34;;;;;;;1999.90;999.90;;;;;;;-0.57;100.00;162248.81;5048910;28;20111;-67
2021/12/21 04:16:04;;;;;;;1999.90;999.90;;;;;;;-0.86;100.00;162169.56;5050297;28;20370;-67
2021/12/21 04:18:35;;;;;;;1999.90;999.90;;;;;;;-0.69;100.00;162216.03;5046889;28;20081;-67
2021/12/21 04:21:03;;;;;;;1999.90;999.90;;;;;;;-0.51;100.00;162263.84;5052947;28;20073;-67
2021/12/21 04:23:30;;;;;;;1999.90;999.90;;;;;;;-0.55;100.00;162252.97;5040518;28;20053;-67
2021/12/21 04:25:56;;;;;;;1999.90;999.90;;;;;;;-0.56;100.00;162250.22;5040229;28;20098;-67
2021/12/21 04:28:23;;;;;;;1999.90;999.90;;;;;;;-0.72;100.00;162209.19;5049166;28;20080;-67
2021/12/21 04:30:49;;;;;;;1999.90;999.90;;;;;;;-0.69;100.00;162214.69;5042579;28;20096;-67
2021/12/21 04:33:16;;;;;;;1999.90;999.90;;;;;;;-0.77;100.00;162195.56;5043325;28;20374;-67
2021/12/21 04:35:44;;;;;;;1999.90;999.90;;;;;;;-1.02;100.00;162128.59;5051195;28;20441;-67
2021/12/21 04:38:21;;;;;;;1999.90;999.90;;;;;;;-0.26;100.00;162329.47;5040034;28;20373;-67
2021/12/21 04:40:58;;;;;;;1999.90;999.90;;;;;;;-0.37;100.00;162302.16;5042973;28;20103;-67
2021/12/21 04:43:25;;;;;;;1999.90;999.90;;;;;;;0.05;100.00;162411.50;5049663;28;20473;-67
2021/12/21 04:45:52;;;;;;;1999.90;999.90;;;;;;;-0.15;100.00;162359.53;5046088;28;20072;-67
2021/12/21 04:48:19;;;;;;;1999.90;999.90;;;;;;;-0.85;100.00;162173.66;5050844;28;20068;-67
2021/12/21 04:50:45;;;;;;;1999.90;999.90;;;;;;;-0.17;100.00;162352.72;5038411;28;20072;-67
2021/12/21 04:53:12;;;;;;;1999.90;999.90;;;;;;;0.01;100.00;162400.56;5040209;28;20478;-67
2021/12/21 04:55:39;;;;;;;1999.90;999.90;;;;;;;-0.05;100.00;162385.53;5041924;28;20144;-67
2021/12/21 04:58:06;;;;;;;1999.90;999.90;;;;;;;-0.08;100.00;162378.66;5032890;28;20084;-67
2021/12/21 05:00:33;;;;;;;1999.90;999.90;;;;;;;-0.45;100.00;162280.25;5038396;28;20514;-69
2021/12/21 05:03:00;;;;;;;1999.90;999.90;;;;;;;-0.84;100.00;162176.41;5043807;28;20068;-68
2021/12/21 05:05:27;;;;;;;1999.90;999.90;;;;;;;-0.64;100.00;162228.31;5034014;28;20059;-67
2021/12/21 05:08:06;;;;;;;1999.90;999.90;;;;;;;-0.73;100.00;162205.09;5041045;28;20401;-67
2021/12/21 05:10:37;;;;;;;1999.90;999.90;;;;;;;-0.63;100.00;162232.44;5039709;28;20080;-67
2021/12/21 05:13:04;;;;;;;1999.90;999.90;;;;;;;-0.77;100.00;162195.56;5046756;28;20072;-66
2021/12/21 05:15:30;;;;;;;1999.90;999.90;;;;;;;-0.57;100.00;162248.81;5047169;28;20048;-66
2021/12/21 05:17:57;;;;;;;1999.90;999.90;;;;;;;-0.10;100.00;162373.22;5041786;28;20100;-67
2021/12/21 05:20:23;;;;;;;1999.90;999.90;;;;;;;-0.25;100.00;162333.59;5043995;28;20077;-67
2021/12/21 05:22:50;;;;;;;1999.90;999.90;;;;;;;0.07;100.00;162418.31;5037973;28;20092;-67
2021/12/21 05:25:17;;;;;;;1999.90;999.90;;;;;;;0.26;100.00;162468.91;5040833;28;20350;-67
2021/12/21 05:27:44;;;;;;;1999.90;999.90;;;;;;;-0.28;100.00;162324.00;5045270;28;20077;-67
2021/12/21 05:30:11;;;;;;;1999.90;999.90;;;;;;;-0.56;100.00;162250.22;5042453;28;20515;-67
2021/12/21 05:32:38;;;;;;;1999.90;999.90;;;;;;;-0.55;100.00;162252.97;5044309;28;20482;-66
2021/12/21 05:35:06;;;;;;;1999.90;999.90;;;;;;;-0.37;100.00;162300.78;5044830;28;20102;-67
2021/12/21 05:37:33;;;;;;;1999.90;999.90;;;;;;;-0.34;100.00;162309.00;5043756;28;20136;-68
2021/12/21 05:40:12;;;;;;;1999.90;999.90;;;;;;;-0.81;100.00;162184.59;5043799;28;20908;-67
2021/12/21 05:42:39;;;;;;;1999.90;999.90;;;;;;;-0.82;100.00;162181.91;5036209;28;20080;-67
2021/12/21 05:45:07;;;;;;;1999.90;999.90;;;;;;;-0.93;100.00;162151.84;5046279;28;20419;-67
2021/12/21 05:47:34;;;;;;;1999.90;999.90;;;;;;;-0.81;100.00;162184.59;5042786;28;20119;-67
2021/12/21 05:50:01;;;;;;;1999.90;999.90;;;;;;;-0.91;100.00;162157.28;5046852;28;20049;-67
2021/12/21 05:52:28;;;;;;;1999.90;999.90;;;;;;;-0.27;100.00;162326.72;5040061;28;20308;-67
2021/12/21 05:54:55;;;;;;;1999.90;999.90;;;;;;;-0.17;100.00;162354.06;5044349;28;20453;-67
2021/12/21 05:57:21;;;;;;;1999.90;999.90;;;;;;;-0.57;100.00;162248.81;5041304;28;20073;-67
2021/12/21 05:59:48;;;;;;;1999.90;999.90;;;;;;;-0.64;100.00;162228.31;5046093;28;20417;-67
2021/12/21 06:02:14;;;;;;;1999.90;999.90;;;;;;;-0.83;100.00;162179.16;5037207;28;20380;-67
2021/12/21 06:04:41;;;;;;;1999.90;999.90;;;;;;;-0.53;100.00;162258.41;5045664;28;20053;-67
2021/12/21 06:07:07;;;;;;;1999.90;999.90;;;;;;;-0.31;100.00;162315.78;5037191;28;20077;-67
2021/12/21 06:09:34;;;;;;;1999.90;999.90;;;;;;;-0.44;100.00;162281.66;5043152;28;20044;-67
2021/12/21 06:12:10;;;;;;;1999.90;999.90;;;;;;;-0.36;100.00;162304.88;5040053;28;20045;-67
2021/12/21 06:23:06;;;;;;;1999.90;999.90;;;;;;;-0.26;100.00;162329.47;5039461;28;20049;-67
2021/12/21 06:28:05;;;;;;;1999.90;999.90;;;;;;;0.11;100.00;162427.91;5039305;28;20099;-67
2021/12/21 06:30:32;;;;;;;1999.90;999.90;;;;;;;-0.59;100.00;162242.03;5044222;28;20045;-67
2021/12/21 06:32:59;;;;;;;1999.90;999.90;;;;;;;-0.23;100.00;162337.69;5038977;28;20697;-68
2021/12/21 06:35:26;;;;;;;1999.90;999.90;;;;;;;-0.17;100.00;162354.06;5042019;28;20053;-67
2021/12/21 06:37:52;;;;;;;1999.90;999.90;;;;;;;-0.32;100.00;162313.09;5039723;28;20131;-67
2021/12/21 06:40:20;;;;;;;1999.90;999.90;;;;;;;-0.32;100.00;162314.44;5048861;28;20099;-67
2021/12/21 06:42:49;;;;;;;1999.90;999.90;;;;;;;-0.35;100.00;162306.25;5038613;28;20077;-67
2021/12/21 06:45:59;;;;;;;1999.90;999.90;;;;;;;0.09;100.00;162422.41;5037708;28;20099;-67
2021/12/21 06:53:50;;;;;;;1999.90;999.90;;;;;;;-0.56;100.00;162251.56;5042694;28;20103;-67
2021/12/21 06:56:24;;;;;;;1999.90;999.90;;;;;;;-0.53;100.00;162258.41;5037780;28;20276;-67
2021/12/21 06:58:53;;;;;;;1999.90;999.90;;;;;;;0.24;100.00;162463.47;5044239;28;20143;-68
2021/12/21 07:01:20;;;;;;;1999.90;999.90;;;;;;;0.26;100.00;162467.56;5040789;28;20075;-67
2021/12/21 07:03:47;;;;;;;1999.90;999.90;;;;;;;0.13;100.00;162434.72;5042752;28;20077;-67
2021/12/21 07:06:16;;;;;;;1999.90;999.90;;;;;;;0.08;100.00;162419.72;5034186;28;20206;-67
2021/12/21 07:08:46;;;;;;;1999.90;999.90;;;;;;;-0.05;100.00;162385.53;5041601;28;20441;-67
2021/12/21 07:11:30;;;;;;;1999.90;999.90;;;;;;;0.18;100.00;162447.06;5043926;28;20061;-67
2021/12/21 07:19:30;;;;;;;1999.90;999.90;;;;;;;0.52;100.00;162537.28;5036304;28;20056;-67
2021/12/21 07:21:57;;;;;;;1999.90;999.90;;;;;;;0.63;100.00;162566.03;5074973;28;20073;-68
2021/12/21 07:24:24;;;;;;;1999.90;999.90;;;;;;;0.75;100.00;162598.84;5040387;28;20087;-68
2021/12/21 07:26:52;;;;;;;1999.90;999.90;;;;;;;0.94;99.85;162648.06;5036593;28;20080;-68
2021/12/21 07:29:18;;;;;;;1999.90;999.90;;;;;;;1.04;99.38;162676.84;5033838;28;20080;-68
2021/12/21 07:31:46;;;;;;;1999.90;999.90;;;;;;;1.01;99.24;162667.25;5038324;28;20072;-68
2021/12/21 07:34:13;;;;;;;1999.90;999.90;;;;;;;0.91;99.91;162641.28;5040587;28;20076;-69
2021/12/21 07:36:43;;;;;;;1999.90;999.90;;;;;;;-0.11;100.00;162369.13;5038328;28;20049;-68
2021/12/21 07:39:13;;;;;;;1999.90;999.90;;;;;;;0.05;100.00;162411.50;5041904;28;20053;-68
2021/12/21 07:41:41;;;;;;;1999.90;999.90;;;;;;;-0.22;100.00;162340.44;5034745;28;20115;-68
2021/12/21 07:44:08;;;;;;;1999.90;999.90;;;;;;;-0.04;100.00;162389.63;5035752;28;20373;-68
2021/12/21 07:46:35;;;;;;;1999.90;999.90;;;;;;;0.34;100.00;162490.81;5040474;28;20335;-68
2021/12/21 07:49:02;;;;;;;1999.90;999.90;;;;;;;0.24;100.00;162463.47;5033219;28;20515;-68
2021/12/21 07:51:30;;;;;;;1999.90;999.90;;;;;;;0.42;100.00;162511.31;5042357;28;20075;-69
2021/12/21 07:53:57;;;;;;;1999.90;999.90;;;;;;;0.53;100.00;162541.38;5040221;28;20476;-68
2021/12/21 07:56:23;;;;;;;1999.90;999.90;;;;;;;0.24;100.00;162463.47;5036017;28;20049;-68
2021/12/21 07:58:50;;;;;;;1999.90;999.90;;;;;;;0.62;100.00;162563.28;5036382;28;20143;-69
2021/12/21 08:01:17;;;;;;;1999.90;999.90;;;;;;;1.14;99.65;162702.81;5041630;28;20073;-67
2021/12/21 08:03:44;;;;;;;1999.90;999.90;;;;;;;0.78;99.69;162607.06;5041245;28;20087;-68
2021/12/21 08:06:13;;;;;;;1999.90;999.90;;;;;;;0.59;100.00;162556.44;5038295;28;20338;-67
2021/12/21 08:08:42;;;;;;;1999.90;999.90;;;;;;;0.92;99.70;162643.97;5031348;28;20071;-67
2021/12/21 08:11:13;;;;;;;1999.90;999.90;;;;;;;1.30;98.14;162745.25;5040941;28;20089;-69
2021/12/21 08:13:43;;;;;;;1999.90;999.90;;;;;;;1.30;97.75;162743.91;5033520;28;20465;-68
2021/12/21 08:16:11;;;;;;;1999.90;999.90;;;;;;;0.98;98.71;162660.44;5035189;28;20052;-67
2021/12/21 08:18:38;;;;;;;1999.90;999.90;;;;;;;0.90;99.32;162637.16;5042817;28;20350;-68
2021/12/21 08:21:05;;;;;;;1999.90;999.90;;;;;;;1.11;98.97;162693.25;5034152;28;20045;-68
2021/12/21 08:23:32;;;;;;;1999.90;999.90;;;;;;;0.88;99.33;162633.06;5033915;28;20389;-67
2021/12/21 08:25:58;;;;;;;1999.90;999.90;;;;;;;0.88;99.19;162633.06;5044233;28;20076;-67
2021/12/21 08:28:25;;;;;;;1999.90;999.90;;;;;;;-0.07;100.00;162381.41;5036889;28;20080;-66
2021/12/21 08:30:52;;;;;;;1999.90;999.90;;;;;;;0.01;100.00;162400.56;5040847;28;20048;-67
2021/12/21 08:33:21;;;;;;;1999.90;999.90;;;;;;;0.33;100.00;162488.06;5041990;28;20128;-68
2021/12/21 08:35:48;;;;;;;1999.90;999.90;;;;;;;0.40;100.00;162504.47;5042168;28;20045;-67
2021/12/21 08:38:17;;;;;;;1999.90;999.90;;;;;;;-0.24;100.00;162334.94;5041414;28;20045;-67
2021/12/21 08:40:49;;;;;;;1999.90;999.90;;;;;;;-0.40;100.00;162293.94;5040210;28;20044;-67
2021/12/21 08:43:17;;;;;;;;;;;;;;;0.28;100.00;162473.03;5037234;28;20111;-67
2021/12/21 08:45:46;;;;;;;1999.90;999.90;;;;;;;0.17;100.00;162444.31;5045784;28;19921;-67
2021/12/21 08:48:14;;;;;;;1999.90;999.90;;;;;;;0.28;100.00;162474.41;5044836;28;20508;-67
2021/12/21 08:50:42;;;;;;;1999.90;999.90;;;;;;;0.01;100.00;162400.56;5038493;28;20108;-67
2021/12/21 08:53:09;;;;;;;1999.90;999.90;;;;;;;0.39;100.00;162501.72;5042831;28;20416;-67
2021/12/21 08:55:36;;;;;;;1999.90;999.90;;;;;;;0.27;100.00;162470.25;5041914;28;20130;-67
2021/12/21 08:58:02;;;;;;;1999.90;999.90;;;;;;;0.84;100.00;162623.47;5042793;28;20336;-68
2021/12/21 09:00:29;;;;;;;1999.90;999.90;;;;;;;0.91;100.00;162639.88;5038862;28;20057;-67
2021/12/21 09:02:56;;;;;;;1999.90;999.90;;;;;;;1.00;98.41;162665.88;5045618;28;20068;-68
2021/12/21 09:05:26;;;;;;;1999.90;999.90;;;;;;;0.93;99.28;162646.72;5038619;28;20172;-68
2021/12/21 09:07:54;;;;;;;1999.90;999.90;;;;;;;0.78;99.06;162607.06;5041160;28;20428;-68
2021/12/21 09:10:23;;;;;;;1999.90;999.90;;;;;;;0.66;100.00;162575.59;5040447;28;20493;-68
2021/12/21 09:12:51;;;;;;;1999.90;999.90;;;;;;;1.03;98.64;162674.09;5047988;28;20076;-68
2021/12/21 09:15:19;;;;;;;1999.90;999.90;;;;;;;0.98;98.53;162660.44;5037334;28;20085;-68
2021/12/21 09:17:47;;;;;;;1999.90;999.90;;;;;;;1.29;97.65;162742.50;5039256;28;20053;-68
2021/12/21 09:20:16;;;;;;;1999.90;999.90;;;;;;;1.10;97.80;162691.84;5038062;28;20323;-68
2021/12/21 09:22:45;;;;;;;1999.90;999.90;;;;;;;1.29;97.70;162742.50;5044463;28;20107;-68
2021/12/21 09:25:12;;;;;;;1999.90;999.90;;;;;;;1.13;97.54;162698.72;5043101;28;20398;-68
2021/12/21 09:27:40;;;;;;;1999.90;999.90;;;;;;;1.25;97.70;162730.19;5034371;28;20060;-68
2021/12/21 09:30:11;;;;;;;1999.90;999.90;;;;;;;1.15;97.24;162704.22;5040445;28;20191;-68
2021/12/21 09:32:38;;;;;;;1999.90;999.90;;;;;;;1.34;96.50;162754.81;5040899;28;20431;-69
2021/12/21 09:35:06;;;;;;;1999.90;999.90;;;;;;;0.79;97.63;162608.41;5044650;28;20099;-68
2021/12/21 09:37:34;;;;;;;1999.90;999.90;;;;;;;0.53;100.00;162540.03;5039426;28;20081;-68
2021/12/21 09:40:03;;;;;;;1999.90;999.90;;;;;;;0.69;98.91;162583.78;5038884;28;20103;-68
2021/12/21 09:42:31;;;;;;;1999.90;999.90;;;;;;;1.19;96.63;162715.13;5033656;28;20061;-68
2021/12/21 09:44:59;;;;;;;1999.90;999.90;;;;;;;1.40;95.44;162772.63;5046620;28;20154;-68
2021/12/21 09:47:27;;;;;;;1999.90;999.90;;;;;;;1.68;94.46;162846.53;5044327;28;20202;-68
2021/12/21 09:49:54;;;;;;;1999.90;999.90;;;;;;;1.06;95.63;162680.94;5040139;28;20423;-68
2021/12/21 09:52:24;;;;;;;1999.90;999.90;;;;;;;0.69;96.30;162582.44;5044342;28;20427;-68
2021/12/21 09:54:51;;;;;;;1999.90;999.90;;;;;;;0.99;95.50;162663.13;5038746;28;20492;-68
2021/12/21 09:57:19;;;;;;;1999.90;999.90;;;;;;;1.04;94.59;162676.84;5037893;28;20134;-67
2021/12/21 09:59:48;;;;;;;1999.90;999.90;;;;;;;1.37;92.82;162763.00;5039864;28;20442;-67
2021/12/21 10:02:21;;;;;;;1999.90;999.90;;;;;;;1.49;91.18;162794.50;5043005;28;20619;-68
2021/12/21 10:04:51;;;;;;;1999.90;999.90;;;;;;;1.17;92.82;162709.66;5046253;28;20100;-68
2021/12/21 10:07:20;;;;;;;1999.90;999.90;;;;;;;1.52;91.65;162802.69;5038606;28;20395;-68
2021/12/21 10:09:47;;;;;;;1999.90;999.90;;;;;;;1.72;91.26;162856.09;5040848;28;20072;-68
2021/12/21 10:12:28;;;;;;;1999.90;999.90;;;;;;;1.44;90.78;162780.81;5042328;28;20464;-66
2021/12/21 10:15:12;;;;;;;1999.90;999.90;;;;;;;1.21;90.52;162720.63;5033449;28;20103;-66
2021/12/21 10:17:48;;;;;;;1999.90;999.90;;;;;;;0.62;92.92;162564.63;5056139;28;20207;-66
2021/12/21 10:20:34;;;;;;;1999.90;999.90;;;;;;;0.80;92.12;162612.50;5038306;28;20132;-66
2021/12/21 10:23:08;;;;;;;1999.90;999.90;;;;;;;1.18;90.92;162712.41;5041883;28;20198;-66
2021/12/21 10:25:44;;;;;;;1999.90;999.90;;;;;;;1.10;91.24;162690.50;5041646;28;20041;-67
2021/12/21 10:28:10;;;;;;;1999.90;999.90;;;;;;;1.64;90.21;162834.19;5036262;28;20446;-67
2021/12/21 10:30:49;;;;;;;1999.90;999.90;;;;;;;1.47;89.93;162790.38;5042312;28;20107;-67
2021/12/21 10:33:16;;;;;;;1999.90;999.90;;;;;;;1.20;90.15;162717.88;5041359;28;20115;-67
2021/12/21 10:35:43;;;;;;;1999.90;999.90;;;;;;;1.11;91.66;162693.25;5036680;28;20042;-67
2021/12/21 10:38:10;;;;;;;1999.90;999.90;;;;;;;1.17;90.98;162709.66;5034846;28;20124;-67
2021/12/21 10:40:40;;;;;;;1999.90;999.90;;;;;;;1.28;89.99;162739.78;5036691;28;20076;-67
2021/12/21 10:43:09;;;;;;;1999.90;999.90;;;;;;;1.40;89.26;162772.63;5040639;28;20103;-67
2021/12/21 10:45:41;;;;;;;1999.90;999.90;;;;;;;1.73;89.13;162860.22;5039506;28;20049;-67
2021/12/21 10:48:16;;;;;;;1999.90;999.90;;;;;;;1.50;89.08;162798.59;5039068;28;20406;-66
2021/12/21 10:50:44;;;;;;;1999.90;999.90;;;;;;;1.19;89.13;162715.13;5033706;28;20050;-67
2021/12/21 10:53:17;;;;;;;1999.90;999.90;;;;;;;1.65;88.59;162838.28;5035621;28;20057;-66
2021/12/21 10:55:44;;;;;;;1999.90;999.90;;;;;;;1.20;89.91;162719.22;5042376;28;20065;-67
2021/12/21 10:58:15;;;;;;;1999.90;999.90;;;;;;;1.00;89.86;162665.88;5036902;28;20094;-67
2021/12/21 11:00:53;;;;;;;1999.90;999.90;;;;;;;0.94;90.48;162648.06;5036059;28;20055;-67
2021/12/21 11:03:30;;;;;;;1999.90;999.90;;;;;;;1.47;87.82;162789.03;5041798;28;20045;-67
2021/12/21 11:06:14;;;;;;;1999.90;999.90;;;;;;;1.67;86.83;162842.44;5032570;28;21212;-67
2021/12/21 11:08:44;;;;;;;1999.90;999.90;;;;;;;1.01;87.05;162668.63;5038794;28;20076;-67
2021/12/21 11:11:21;;;;;;;1999.90;999.90;;;;;;;0.88;90.45;162633.06;5035560;28;20299;-67
2021/12/21 11:14:12;;;;;;;1999.90;999.90;;;;;;;0.68;90.42;162581.03;5040618;28;20073;-67
2021/12/21 11:20:01;;;;;;;1999.90;999.90;;;;;;;0.32;93.04;162483.97;5039597;28;20052;-68
2021/12/21 11:22:28;;;;;;;1999.90;999.90;;;;;;;1.04;90.63;162676.84;5034340;28;20053;-66
2021/12/21 11:24:58;;;;;;;1999.90;999.90;;;;;;;0.35;91.20;162493.53;5040207;28;20046;-66
2021/12/21 11:27:28;;;;;;;1999.90;999.90;;;;;;;0.32;91.96;162483.97;5031948;28;20053;-67
2021/12/21 11:30:02;;;;;;;1999.90;999.90;;;;;;;0.54;90.98;162542.78;5043730;28;20376;-67
2021/12/21 11:32:32;;;;;;;1999.90;999.90;;;;;;;0.82;91.47;162616.59;5041307;28;20069;-67
2021/12/21 11:37:20;;;;;;;1999.90;999.90;;;;;;;1.34;89.04;162756.22;5037520;28;20470;-67
2021/12/21 11:37:53;;;;;;;1999.90;999.90;;;;;;;0.91;88.97;162641.28;5044359;28;20079;-67
2021/12/21 11:40:23;;;;;;;1999.90;999.90;;;;;;;1.04;88.16;162675.44;5035738;28;20690;-67
2021/12/21 11:42:50;;;;;;;1999.90;999.90;;;;;;;1.16;87.84;162708.31;5037973;28;20073;-66
2021/12/21 11:45:20;;;;;;;1999.90;999.90;;;;;;;1.17;86.64;162709.66;5040895;28;20107;-67
2021/12/21 11:47:54;;;;;;;1999.90;999.90;;;;;;;1.50;86.44;162797.25;5041836;28;20137;-66
2021/12/21 11:50:23;;;;;;;1999.90;999.90;;;;;;;1.43;86.29;162778.06;5047506;28;20040;-67
2021/12/21 11:52:54;;;;;;;1999.90;999.90;;;;;;;1.05;86.00;162679.53;5031965;28;20099;-67
2021/12/21 11:55:26;;;;;;;1999.90;999.90;;;;;;;0.86;86.86;162627.56;5032643;28;20054;-67
2021/12/21 11:57:54;;;;;;;;;;;;;;;0.87;86.53;162631.66;5036066;28;20118;-68
2021/12/21 12:00:33;;;;;;;1999.90;999.90;;;;;;;0.64;86.65;162570.13;5046734;28;20327;-68
2021/12/21 12:03:22;;;;;;;1999.90;999.90;;;;;;;1.07;84.79;162683.66;5038703;28;20057;-67